createdAt,value
2018-05-23T00:00:42.903Z,19.70
2018-05-23T00:03:11.163Z,19.70
2018-05-23T00:05:39.414Z,19.60
2018-05-23T00:08:08.478Z,19.40
2018-05-23T00:10:38.269Z,19.40
2018-05-23T00:13:06.568Z,19.40
2018-05-23T00:15:34.804Z,19.30
2018-05-23T00:18:03.064Z,19.30
2018-05-23T00:20:32.132Z,19.20
2018-05-23T00:23:00.366Z,19.10
2018-05-23T00:25:28.625Z,19.10
2018-05-23T00:27:56.908Z,19.10
2018-05-23T00:30:25.171Z,19.00
2018-05-23T00:32:53.417Z,19.00
2018-05-23T00:35:21.675Z,19.00
2018-05-23T00:37:49.923Z,18.90
2018-05-23T00:40:18.175Z,18.80
2018-05-23T00:42:46.499Z,18.80
2018-05-23T00:45:14.762Z,18.60
2018-05-23T00:47:43.000Z,18.60
2018-05-23T00:50:11.263Z,18.40
2018-05-23T00:52:39.516Z,18.30
2018-05-23T00:55:21.232Z,18.10
2018-05-23T00:57:50.302Z,18.10
2018-05-23T01:00:18.548Z,18.10
2018-05-23T01:02:46.813Z,18.10
2018-05-23T01:05:15.090Z,18.00
2018-05-23T01:07:43.352Z,18.00
2018-05-23T01:10:11.658Z,18.00
2018-05-23T01:12:39.958Z,17.90
2018-05-23T01:15:08.256Z,17.80
2018-05-23T01:17:38.036Z,17.70
2018-05-23T01:20:06.279Z,17.70
2018-05-23T01:22:34.527Z,17.60
2018-05-23T01:25:03.603Z,17.50
2018-05-23T01:27:31.837Z,17.50
2018-05-23T01:30:00.108Z,17.50
2018-05-23T01:32:28.350Z,17.40
2018-05-23T01:34:57.382Z,17.30
2018-05-23T01:37:25.625Z,17.20
2018-05-23T01:39:53.884Z,17.20
2018-05-23T01:42:23.643Z,16.90
2018-05-23T01:44:51.903Z,16.90
2018-05-23T01:47:20.979Z,16.80
2018-05-23T01:49:49.254Z,16.80
2018-05-23T01:52:19.056Z,16.70
2018-05-23T01:54:47.357Z,16.80
2018-05-23T01:57:15.658Z,16.70
2018-05-23T01:59:43.937Z,16.60
2018-05-23T02:02:12.236Z,16.60
2018-05-23T02:04:40.470Z,16.50
2018-05-23T02:07:09.534Z,16.50
2018-05-23T02:09:37.772Z,16.40
2018-05-23T02:12:06.039Z,16.40
2018-05-23T02:14:34.331Z,16.30
2018-05-23T02:17:02.655Z,16.30
2018-05-23T02:19:30.887Z,16.20
2018-05-23T02:21:59.162Z,16.20
2018-05-23T02:24:27.455Z,16.10
2018-05-23T02:26:55.735Z,16.00
2018-05-23T02:29:23.979Z,16.10
2018-05-23T02:31:52.278Z,16.00
2018-05-23T02:34:20.535Z,16.00
2018-05-23T02:36:48.787Z,15.90
2018-05-23T02:39:17.847Z,15.90
2018-05-23T02:41:46.131Z,15.90
2018-05-23T02:44:14.376Z,15.80
2018-05-23T02:46:42.654Z,15.80
2018-05-23T02:49:10.922Z,15.70
2018-05-23T02:51:39.213Z,15.70
2018-05-23T02:54:07.552Z,15.60
2018-05-23T02:56:36.602Z,15.60
2018-05-23T02:59:04.879Z,15.60
2018-05-23T03:01:33.149Z,15.60
2018-05-23T03:04:01.386Z,15.60
2018-05-23T03:06:30.403Z,15.60
2018-05-23T03:08:58.701Z,15.60
2018-05-23T03:11:26.998Z,15.60
2018-05-23T03:13:55.241Z,15.60
2018-05-23T03:16:23.573Z,15.50
2018-05-23T03:18:52.582Z,15.50
2018-05-23T03:21:21.643Z,15.50
2018-05-23T03:23:49.931Z,15.50
2018-05-23T03:26:18.181Z,15.40
2018-05-23T03:28:46.481Z,15.40
2018-05-23T03:31:14.715Z,15.30
2018-05-23T03:33:43.010Z,15.30
2018-05-23T03:36:11.253Z,15.30
2018-05-23T03:38:39.513Z,15.20
2018-05-23T03:41:09.022Z,15.20
2018-05-23T03:43:38.059Z,15.20
2018-05-23T03:46:06.309Z,15.20
2018-05-23T03:48:34.558Z,15.20
2018-05-23T03:51:03.567Z,15.20
2018-05-23T03:53:32.594Z,15.20
2018-05-23T03:56:00.840Z,15.10
2018-05-23T03:58:29.898Z,15.10
2018-05-23T04:01:10.083Z,15.10
2018-05-23T04:03:51.080Z,15.00
2018-05-23T04:06:31.187Z,15.00
2018-05-23T04:08:59.491Z,14.90
2018-05-23T04:11:28.557Z,14.90
2018-05-23T04:13:56.810Z,14.80
2018-05-23T04:16:25.083Z,14.90
2018-05-23T04:18:53.383Z,14.90
2018-05-23T04:21:21.622Z,14.90
2018-05-23T04:23:49.930Z,15.00
2018-05-23T04:26:18.175Z,15.00
2018-05-23T04:28:46.451Z,15.10
2018-05-23T04:31:14.731Z,15.10
2018-05-23T04:33:43.014Z,15.10
2018-05-23T04:36:11.303Z,15.10
2018-05-23T04:38:39.557Z,15.20
2018-05-23T04:41:07.813Z,15.20
2018-05-23T04:43:36.834Z,15.40
2018-05-23T04:46:05.079Z,15.30
2018-05-23T04:48:34.151Z,15.50
2018-05-23T04:51:02.404Z,15.50
2018-05-23T04:53:30.689Z,15.60
2018-05-23T04:55:58.987Z,15.70
2018-05-23T04:58:27.235Z,15.80
2018-05-23T05:00:55.529Z,15.80
2018-05-23T05:03:23.773Z,15.90
2018-05-23T05:05:52.070Z,16.00
2018-05-23T05:08:20.326Z,16.20
2018-05-23T05:10:48.575Z,16.20
2018-05-23T05:13:17.645Z,16.50
2018-05-23T05:15:47.388Z,16.50
2018-05-23T05:18:15.650Z,16.60
2018-05-23T05:20:44.693Z,16.80
2018-05-23T05:23:12.991Z,16.70
2018-05-23T05:25:41.223Z,16.90
2018-05-23T05:28:09.484Z,17.00
2018-05-23T05:30:38.562Z,17.10
2018-05-23T05:33:06.625Z,17.10
2018-05-23T05:35:34.679Z,17.20
2018-05-23T05:38:02.709Z,17.30
2018-05-23T05:40:31.540Z,17.50
2018-05-23T05:42:59.599Z,17.50
2018-05-23T05:45:27.654Z,17.60
2018-05-23T05:47:56.436Z,17.80
2018-05-23T05:50:25.360Z,17.90
2018-05-23T05:52:53.408Z,17.90
2018-05-23T05:55:22.238Z,18.10
2018-05-23T05:57:50.260Z,18.10
2018-05-23T06:00:18.336Z,18.30
2018-05-23T06:02:46.382Z,18.30
2018-05-23T06:05:14.399Z,18.40
2018-05-23T06:07:42.416Z,18.50
2018-05-23T06:10:10.447Z,18.60
2018-05-23T06:12:38.498Z,18.70
2018-05-23T06:15:07.330Z,18.90
2018-05-23T06:17:35.387Z,18.90
2018-05-23T06:20:03.675Z,19.00
2018-05-23T06:22:31.931Z,19.10
2018-05-23T06:25:00.219Z,19.20
2018-05-23T06:27:28.302Z,19.30
2018-05-23T06:29:56.360Z,19.40
2018-05-23T06:32:24.371Z,19.50
2018-05-23T06:34:52.446Z,19.50
2018-05-23T06:37:20.522Z,19.60
2018-05-23T06:39:49.575Z,19.70
2018-05-23T06:42:17.616Z,19.70
2018-05-23T06:44:45.864Z,19.80
2018-05-23T06:47:14.925Z,19.90
2018-05-23T06:49:43.226Z,19.90
2018-05-23T06:52:11.529Z,19.90
2018-05-23T06:54:39.545Z,19.90
2018-05-23T06:57:07.578Z,20.00
2018-05-23T06:59:35.605Z,20.10
2018-05-23T07:02:03.670Z,20.20
2018-05-23T07:04:31.731Z,20.20
2018-05-23T07:06:59.758Z,20.30
2018-05-23T07:09:27.817Z,20.30
2018-05-23T07:11:55.909Z,20.40
2018-05-23T07:14:23.931Z,20.50
2018-05-23T07:16:51.957Z,20.60
2018-05-23T07:19:20.030Z,20.70
2018-05-23T07:21:48.839Z,20.80
2018-05-23T07:24:17.113Z,20.80
2018-05-23T07:26:45.369Z,20.90
2018-05-23T07:29:14.386Z,21.10
2018-05-23T07:31:42.737Z,21.00
2018-05-23T07:34:10.959Z,21.20
2018-05-23T07:36:39.223Z,21.10
2018-05-23T07:39:07.541Z,20.90
2018-05-23T07:41:35.801Z,21.10
2018-05-23T07:44:04.074Z,21.00
2018-05-23T07:46:32.310Z,21.20
2018-05-23T07:49:00.616Z,21.20
2018-05-23T07:51:28.863Z,21.40
2018-05-23T07:53:57.110Z,21.20
2018-05-23T07:56:26.204Z,21.00
2018-05-23T07:58:54.484Z,21.10
2018-05-23T08:01:22.780Z,21.10
2018-05-23T08:03:52.200Z,21.40
2018-05-23T08:06:20.491Z,21.40
2018-05-23T08:08:48.779Z,21.40
2018-05-23T08:11:17.029Z,21.20
2018-05-23T08:13:45.264Z,21.20
2018-05-23T08:16:14.321Z,21.20
2018-05-23T08:18:42.609Z,21.00
2018-05-23T08:21:10.876Z,21.10
2018-05-23T08:23:39.424Z,21.30
2018-05-23T08:26:08.473Z,20.70
2018-05-23T08:28:36.719Z,20.70
2018-05-23T08:31:05.009Z,20.80
2018-05-23T08:33:33.262Z,20.70
2018-05-23T08:36:01.588Z,20.60
2018-05-23T08:38:29.855Z,20.50
2018-05-23T08:40:58.133Z,20.60
2018-05-23T08:43:26.385Z,20.70
2018-05-23T08:45:54.696Z,20.40
2018-05-23T08:48:22.998Z,20.30
2018-05-23T08:50:51.332Z,20.40
2018-05-23T08:53:19.584Z,20.60
2018-05-23T08:55:47.841Z,20.90
2018-05-23T08:58:16.919Z,21.10
2018-05-23T09:00:45.666Z,21.10
2018-05-23T09:03:13.906Z,21.40
2018-05-23T09:05:42.947Z,21.60
2018-05-23T09:08:11.247Z,21.60
2018-05-23T09:10:39.543Z,21.90
2018-05-23T09:13:07.784Z,22.00
2018-05-23T09:15:36.040Z,22.20
2018-05-23T09:18:04.358Z,22.10
2018-05-23T09:20:32.611Z,21.90
2018-05-23T09:23:00.889Z,21.80
2018-05-23T09:25:29.193Z,22.00
2018-05-23T09:27:57.469Z,22.00
2018-05-23T09:30:25.793Z,21.80
2018-05-23T09:32:54.053Z,21.90
2018-05-23T09:35:23.139Z,21.90
2018-05-23T09:37:52.208Z,21.90
2018-05-23T09:40:20.501Z,21.90
2018-05-23T09:42:48.771Z,21.90
2018-05-23T09:45:17.090Z,21.90
2018-05-23T09:47:45.341Z,21.90
2018-05-23T09:50:13.367Z,21.90
2018-05-23T09:52:41.642Z,21.90
2018-05-23T09:55:10.027Z,21.80
2018-05-23T09:57:38.283Z,21.80
2018-05-23T10:00:06.545Z,21.80
2018-05-23T10:02:35.556Z,21.80
2018-05-23T10:05:04.263Z,21.80
2018-05-23T10:07:33.295Z,21.80
2018-05-23T10:10:02.447Z,21.80
2018-05-23T10:12:30.703Z,21.90
2018-05-23T10:14:58.973Z,21.90
2018-05-23T10:17:27.281Z,22.00
2018-05-23T10:19:55.516Z,22.00
2018-05-23T10:22:24.548Z,22.10
2018-05-23T10:24:52.844Z,22.10
2018-05-23T10:27:21.127Z,22.20
2018-05-23T10:29:49.519Z,22.20
2018-05-23T10:32:17.803Z,22.30
2018-05-23T10:34:46.091Z,22.40
2018-05-23T10:37:15.173Z,22.50
2018-05-23T10:39:43.419Z,22.50
2018-05-23T10:42:11.680Z,22.60
2018-05-23T10:44:39.922Z,22.70
2018-05-23T10:47:08.962Z,23.00
2018-05-23T10:49:37.251Z,22.90
2018-05-23T10:52:05.529Z,23.00
2018-05-23T10:54:33.819Z,23.10
2018-05-23T10:57:02.072Z,23.30
2018-05-23T10:59:30.361Z,23.40
2018-05-23T11:01:58.622Z,23.50
2018-05-23T11:04:26.909Z,23.60
2018-05-23T11:06:55.200Z,23.70
2018-05-23T11:09:23.480Z,23.80
2018-05-23T11:11:51.757Z,23.90
2018-05-23T11:14:20.059Z,23.90
2018-05-23T11:16:48.326Z,24.00
2018-05-23T11:19:16.626Z,24.10
2018-05-23T11:21:45.753Z,24.20
2018-05-23T11:24:14.044Z,24.20
2018-05-23T11:26:42.611Z,24.30
2018-05-23T11:29:10.909Z,24.40
2018-05-23T11:31:39.165Z,24.50
2018-05-23T11:34:07.486Z,24.60
2018-05-23T11:36:36.492Z,24.80
2018-05-23T11:39:05.616Z,24.90
2018-05-23T11:41:34.634Z,25.30
2018-05-23T11:44:03.736Z,25.30
2018-05-23T11:46:32.061Z,25.60
2018-05-23T11:49:00.311Z,25.80
2018-05-23T11:51:28.588Z,26.00
2018-05-23T11:53:57.615Z,26.20
2018-05-23T11:56:26.661Z,26.40
2018-05-23T11:58:54.956Z,26.30
2018-05-23T12:01:23.252Z,26.50
2018-05-23T12:03:51.551Z,26.50
2018-05-23T12:06:20.598Z,26.70
2018-05-23T12:08:48.936Z,26.70
2018-05-23T12:11:17.157Z,26.80
2018-05-23T12:13:46.719Z,26.90
2018-05-23T12:16:16.502Z,27.00
2018-05-23T12:18:44.793Z,27.00
2018-05-23T12:21:13.838Z,27.00
2018-05-23T12:23:42.131Z,27.00
2018-05-23T12:26:11.162Z,27.00
2018-05-23T12:28:39.421Z,27.00
2018-05-23T12:31:08.136Z,27.10
2018-05-23T12:33:37.158Z,27.40
2018-05-23T12:36:05.447Z,27.40
2018-05-23T12:38:33.710Z,27.50
2018-05-23T12:41:02.025Z,27.60
2018-05-23T12:43:30.251Z,27.60
2018-05-23T12:45:58.508Z,27.70
2018-05-23T12:48:27.539Z,27.60
2018-05-23T12:50:55.833Z,27.50
2018-05-23T12:53:24.231Z,27.50
2018-05-23T12:55:52.474Z,27.40
2018-05-23T12:58:20.748Z,27.40
2018-05-23T13:00:49.027Z,27.30
2018-05-23T13:03:17.351Z,27.30
2018-05-23T13:05:46.046Z,27.20
2018-05-23T13:08:14.326Z,27.20
2018-05-23T13:10:42.634Z,27.10
2018-05-23T13:13:10.919Z,27.10
2018-05-23T13:15:39.191Z,27.10
2018-05-23T13:18:08.195Z,27.00
2018-05-23T13:20:36.470Z,27.00
2018-05-23T13:23:04.748Z,26.90
2018-05-23T13:25:33.009Z,26.80
2018-05-23T13:28:01.259Z,26.80
2018-05-23T13:30:30.279Z,26.80
2018-05-23T13:32:58.532Z,26.80
2018-05-23T13:35:26.842Z,26.80
2018-05-23T13:37:55.075Z,26.80
2018-05-23T13:40:23.360Z,26.70
2018-05-23T13:42:52.386Z,26.50
2018-05-23T13:45:20.671Z,26.50
2018-05-23T13:47:48.928Z,26.50
2018-05-23T13:50:17.966Z,26.20
2018-05-23T13:52:46.277Z,26.20
2018-05-23T13:55:14.675Z,26.10
2018-05-23T13:57:42.903Z,26.00
2018-05-23T14:00:11.178Z,26.00
2018-05-23T14:02:39.488Z,26.00
2018-05-23T14:05:07.786Z,25.90
2018-05-23T14:07:36.048Z,25.80
2018-05-23T14:10:04.337Z,25.60
2018-05-23T14:12:33.370Z,25.50
2018-05-23T14:15:01.678Z,25.50
2018-05-23T14:17:29.926Z,25.50
2018-05-23T14:19:58.193Z,25.50
2018-05-23T14:22:26.461Z,25.40
2018-05-23T14:24:54.745Z,25.30
2018-05-23T14:27:23.049Z,25.30
2018-05-23T14:29:51.364Z,25.20
2018-05-23T14:32:19.625Z,25.20
2018-05-23T14:34:48.675Z,25.10
2018-05-23T14:37:16.980Z,25.00
2018-05-23T14:39:45.275Z,25.00
2018-05-23T14:42:13.537Z,24.90
2018-05-23T14:44:41.804Z,24.90
2018-05-23T14:47:10.063Z,24.90
2018-05-23T14:49:38.307Z,24.80
2018-05-23T14:52:07.326Z,24.70
2018-05-23T14:54:35.643Z,24.70
2018-05-23T14:57:03.941Z,24.60
2018-05-23T14:59:32.249Z,24.40
2018-05-23T15:02:01.248Z,23.80
2018-05-23T15:04:29.521Z,23.80
2018-05-23T15:06:58.573Z,23.60
2018-05-23T15:09:26.836Z,23.50
2018-05-23T15:11:55.099Z,23.40
2018-05-23T15:14:23.418Z,23.30
2018-05-23T15:16:51.672Z,23.30
2018-05-23T15:19:19.924Z,23.30
2018-05-23T15:21:48.228Z,23.20
2018-05-23T15:24:16.532Z,23.10
2018-05-23T15:26:44.831Z,23.00
2018-05-23T15:29:13.840Z,22.70
2018-05-23T15:31:42.161Z,22.70
2018-05-23T15:34:10.412Z,22.30
2018-05-23T15:36:38.675Z,22.00
2018-05-23T15:39:06.987Z,21.80
2018-05-23T15:41:35.339Z,21.60
2018-05-23T15:44:03.603Z,21.30
2018-05-23T15:46:31.844Z,21.00
2018-05-23T15:49:00.139Z,20.80
2018-05-23T15:51:29.203Z,20.60
2018-05-23T15:53:57.496Z,20.60
2018-05-23T15:56:25.754Z,20.50
2018-05-23T15:58:54.034Z,20.40
2018-05-23T16:01:22.307Z,20.10
2018-05-23T16:03:50.557Z,20.00
2018-05-23T16:06:18.867Z,19.90
2018-05-23T16:08:47.106Z,19.80
2018-05-23T16:11:15.356Z,19.70
2018-05-23T16:13:44.421Z,19.60
2018-05-23T16:16:12.717Z,19.60
2018-05-23T16:18:40.959Z,19.60
2018-05-23T16:21:09.267Z,19.60
2018-05-23T16:23:38.307Z,19.50
2018-05-23T16:26:06.574Z,19.50
2018-05-23T16:28:34.896Z,19.50
2018-05-23T16:31:03.185Z,19.50
2018-05-23T16:33:31.446Z,19.40
2018-05-23T16:35:59.746Z,19.40
2018-05-23T16:38:28.084Z,19.40
2018-05-23T16:40:56.319Z,19.30
2018-05-23T16:43:25.340Z,19.20
2018-05-23T16:45:53.592Z,19.20
2018-05-23T16:48:22.637Z,19.10
2018-05-23T16:50:50.933Z,19.10
2018-05-23T16:53:19.207Z,19.10
2018-05-23T16:55:47.520Z,19.10
2018-05-23T16:58:16.621Z,19.00
2018-05-23T17:00:45.635Z,19.00
2018-05-23T17:03:13.931Z,18.90
2018-05-23T17:05:42.177Z,19.00
2018-05-23T17:08:10.431Z,18.90
2018-05-23T17:10:39.466Z,18.80
2018-05-23T17:13:07.736Z,18.80
2018-05-23T17:15:35.999Z,18.80
2018-05-23T17:18:04.287Z,18.70
2018-05-23T17:20:32.612Z,18.70
2018-05-23T17:23:00.907Z,18.60
2018-05-23T17:25:29.245Z,18.60
2018-05-23T17:27:57.533Z,18.60
2018-05-23T17:30:25.880Z,18.60
2018-05-23T17:32:54.191Z,18.60
2018-05-23T17:35:22.569Z,18.60
2018-05-23T17:37:50.882Z,18.70
2018-05-23T17:40:19.339Z,18.70
2018-05-23T17:42:48.301Z,18.70
2018-05-23T17:45:16.637Z,18.70
2018-05-23T17:47:44.938Z,18.60
2018-05-23T17:50:13.168Z,18.70
2018-05-23T17:52:41.457Z,18.70
2018-05-23T17:55:09.713Z,18.70
2018-05-23T17:57:38.039Z,18.70
2018-05-23T18:00:06.343Z,18.60
2018-05-23T18:02:34.614Z,18.50
2018-05-23T18:05:02.876Z,18.60
2018-05-23T18:07:31.198Z,18.60
2018-05-23T18:09:59.439Z,18.50
2018-05-23T18:12:27.702Z,18.40
2018-05-23T18:14:56.014Z,18.50
2018-05-23T18:17:24.296Z,18.40
2018-05-23T18:19:52.564Z,18.50
2018-05-23T18:22:20.846Z,18.50
2018-05-23T18:24:49.228Z,18.50
2018-05-23T18:27:17.512Z,18.40
2018-05-23T18:29:46.814Z,18.40
2018-05-23T18:32:15.091Z,18.50
2018-05-23T18:34:43.466Z,18.40
2018-05-23T18:37:11.845Z,18.50
2018-05-23T18:39:40.216Z,18.40
2018-05-23T18:42:08.484Z,18.50
2018-05-23T18:44:37.836Z,18.40
2018-05-23T18:47:06.886Z,18.40
2018-05-23T18:49:35.187Z,18.40
2018-05-23T18:52:03.464Z,18.40
2018-05-23T18:54:31.785Z,18.40
2018-05-23T18:57:00.833Z,18.40
2018-05-23T18:59:29.120Z,18.40
2018-05-23T19:01:57.427Z,18.40
2018-05-23T19:04:26.470Z,18.40
2018-05-23T19:06:54.712Z,18.40
2018-05-23T19:09:23.741Z,18.40
2018-05-23T19:11:52.047Z,18.40
2018-05-23T19:14:20.326Z,18.40
2018-05-23T19:16:48.628Z,18.40
2018-05-23T19:19:16.880Z,18.40
2018-05-23T19:21:45.190Z,18.40
2018-05-23T19:24:14.258Z,18.40
2018-05-23T19:26:42.545Z,18.40
2018-05-23T19:29:10.774Z,18.30
2018-05-23T19:31:39.122Z,18.30
2018-05-23T19:34:08.158Z,18.20
2018-05-23T19:36:36.461Z,18.20
2018-05-23T19:39:04.744Z,18.20
2018-05-23T19:41:33.031Z,18.10
2018-05-23T19:44:02.114Z,18.00
2018-05-23T19:46:30.411Z,18.00
2018-05-23T19:48:59.429Z,18.00
2018-05-23T19:51:27.680Z,18.00
2018-05-23T19:53:56.743Z,17.90
2018-05-23T19:56:24.992Z,17.90
2018-05-23T19:58:53.304Z,17.90
2018-05-23T20:01:21.563Z,17.90
2018-05-23T20:03:49.883Z,17.90
2018-05-23T20:06:19.097Z,17.90
2018-05-23T20:08:48.175Z,17.90
2018-05-23T20:11:16.534Z,17.80
2018-05-23T20:13:45.590Z,17.90
2018-05-23T20:16:13.872Z,17.90
2018-05-23T20:18:42.159Z,17.90
2018-05-23T20:21:10.436Z,17.90
2018-05-23T20:23:38.684Z,17.90
2018-05-23T20:26:06.999Z,17.90
2018-05-23T20:28:35.251Z,17.90
2018-05-23T20:31:03.531Z,17.90
2018-05-23T20:33:31.807Z,17.90
2018-05-23T20:36:00.085Z,17.90
2018-05-23T20:38:28.363Z,17.90
2018-05-23T20:40:56.657Z,17.90
2018-05-23T20:43:24.958Z,17.90
2018-05-23T20:45:53.227Z,17.90
2018-05-23T20:48:21.530Z,17.90
2018-05-23T20:50:49.827Z,17.90
2018-05-23T20:53:18.906Z,17.90
2018-05-23T20:55:47.212Z,17.90
2018-05-23T20:58:16.222Z,17.80
2018-05-23T21:00:44.498Z,17.90
2018-05-23T21:03:12.800Z,17.80
2018-05-23T21:05:41.143Z,17.80
2018-05-23T21:08:09.437Z,17.80
2018-05-23T21:10:37.771Z,17.80
2018-05-23T21:13:06.046Z,17.70
2018-05-23T21:15:34.327Z,17.70
2018-05-23T21:18:02.598Z,17.60
2018-05-23T21:20:30.882Z,17.60
2018-05-23T21:22:59.204Z,17.50
2018-05-23T21:25:27.535Z,17.50
2018-05-23T21:27:57.343Z,17.50
2018-05-23T21:30:25.623Z,17.50
2018-05-23T21:32:54.706Z,17.50
2018-05-23T21:35:23.057Z,17.50
2018-05-23T21:37:51.437Z,17.50
2018-05-23T21:40:19.734Z,17.50
2018-05-23T21:42:48.056Z,17.50
2018-05-23T21:45:17.080Z,17.50
2018-05-23T21:47:45.349Z,17.40
2018-05-23T21:50:13.616Z,17.50
2018-05-23T21:52:42.713Z,17.50
2018-05-23T21:55:10.898Z,17.50
2018-05-23T21:57:39.179Z,17.50
2018-05-23T22:00:07.475Z,17.40
2018-05-23T22:02:35.732Z,17.40
2018-05-23T22:05:04.024Z,17.40
2018-05-23T22:07:32.258Z,17.40
2018-05-23T22:10:01.344Z,17.40
2018-05-23T22:12:30.194Z,17.40
2018-05-23T22:14:58.511Z,17.40
2018-05-23T22:17:26.737Z,17.50
2018-05-23T22:19:54.998Z,17.50
2018-05-23T22:22:23.267Z,17.50
2018-05-23T22:24:51.531Z,17.50
2018-05-23T22:27:20.588Z,17.50
2018-05-23T22:29:48.886Z,17.50
2018-05-23T22:32:18.634Z,17.40
2018-05-23T22:34:46.952Z,17.40
2018-05-23T22:37:15.201Z,17.50
2018-05-23T22:39:43.450Z,17.40
2018-05-23T22:42:12.513Z,17.40
2018-05-23T22:44:40.779Z,17.30
2018-05-23T22:47:09.059Z,17.30
2018-05-23T22:49:37.363Z,17.30
2018-05-23T22:52:06.413Z,17.30
2018-05-23T22:54:34.717Z,17.20
2018-05-23T22:57:02.987Z,17.20
2018-05-23T22:59:31.295Z,17.10
2018-05-23T23:01:59.605Z,17.10
2018-05-23T23:04:27.867Z,17.10
2018-05-23T23:06:56.145Z,17.10
2018-05-23T23:09:25.166Z,17.10
2018-05-23T23:11:53.475Z,17.00
2018-05-23T23:14:21.755Z,17.10
2018-05-23T23:16:49.992Z,17.10
2018-05-23T23:19:18.250Z,17.10
2018-05-23T23:21:46.512Z,17.10
2018-05-23T23:24:15.536Z,17.10
2018-05-23T23:26:43.792Z,17.10
2018-05-23T23:29:12.080Z,17.10
2018-05-23T23:31:40.331Z,17.10
2018-05-23T23:34:09.370Z,17.00
2018-05-23T23:36:37.637Z,17.00
2018-05-23T23:39:05.885Z,17.00
2018-05-23T23:41:34.901Z,17.00
2018-05-23T23:44:03.204Z,17.00
2018-05-23T23:46:31.485Z,17.00
2018-05-23T23:48:59.731Z,17.00
2018-05-23T23:51:27.984Z,17.10
2018-05-23T23:53:57.004Z,17.10
2018-05-23T23:56:25.247Z,17.00
2018-05-23T23:58:54.326Z,17.00
